createdAt,value
2022-10-19T00:00:16.243Z,96755.03
2022-10-19T00:02:18.994Z,96579.00
2022-10-19T00:04:21.735Z,96876.78
2022-10-19T00:06:26.936Z,96873.25
2022-10-19T00:08:29.621Z,96834.78
2022-10-19T00:10:32.419Z,96826.88
2022-10-19T00:12:35.244Z,96832.84
2022-10-19T00:14:39.323Z,96826.38
2022-10-19T00:16:42.618Z,96631.91
2022-10-19T00:18:46.441Z,96800.31
2022-10-19T00:20:49.134Z,96829.28
2022-10-19T00:22:51.874Z,96836.06
2022-10-19T00:24:56.902Z,96826.28
2022-10-19T00:26:59.733Z,96826.00
2022-10-19T00:29:02.612Z,96244.78
2022-10-19T00:31:09.627Z,96796.81
2022-10-19T00:33:12.458Z,96485.50
2022-10-19T00:35:15.114Z,96661.38
2022-10-19T00:37:17.826Z,96816.13
2022-10-19T00:39:20.569Z,96413.75
2022-10-19T00:41:25.413Z,96815.81
2022-10-19T00:43:32.392Z,96815.81
2022-10-19T00:45:35.126Z,96815.22
2022-10-19T00:47:39.812Z,95404.41
2022-10-19T00:49:46.347Z,96705.22
2022-10-19T00:51:53.065Z,96586.00
2022-10-19T00:53:57.037Z,96810.25
2022-10-19T00:56:04.235Z,96824.59
2022-10-19T00:58:07.153Z,96811.06
2022-10-19T01:00:10.728Z,96815.31
2022-10-19T01:02:13.672Z,96810.97
2022-10-19T01:04:18.096Z,96808.53
2022-10-19T01:06:21.065Z,96815.56
2022-10-19T01:08:24.433Z,96536.00
2022-10-19T01:10:39.257Z,96513.84
2022-10-19T01:12:57.149Z,96731.00
2022-10-19T01:15:13.097Z,96755.84
2022-10-19T01:17:24.607Z,96743.63
2022-10-19T01:19:52.058Z,96746.13
2022-10-19T01:22:04.560Z,96740.25
2022-10-19T01:24:39.842Z,96795.84
2022-10-19T01:27:09.669Z,96794.16
2022-10-19T01:29:19.811Z,96611.22
2022-10-19T01:31:31.517Z,96706.50
2022-10-19T01:33:46.046Z,96810.97
2022-10-19T01:35:56.635Z,96796.00
2022-10-19T01:38:07.951Z,96549.75
2022-10-19T01:40:14.093Z,96792.38
2022-10-19T01:42:21.721Z,96792.63
2022-10-19T01:44:29.189Z,96796.16
2022-10-19T01:46:38.033Z,96516.16
2022-10-19T01:48:44.047Z,96633.28
2022-10-19T01:50:52.704Z,96739.66
2022-10-19T01:52:57.771Z,96787.09
2022-10-19T01:55:04.138Z,96792.44
2022-10-19T01:57:10.411Z,96796.22
2022-10-19T01:59:15.539Z,96727.59
2022-10-19T02:01:22.481Z,96788.63
2022-10-19T02:03:28.380Z,96788.63
2022-10-19T02:05:33.898Z,96783.47
2022-10-19T02:07:39.109Z,96782.38
2022-10-19T02:09:42.139Z,96790.75
2022-10-19T02:11:49.623Z,96783.50
2022-10-19T02:14:00.299Z,96689.44
2022-10-19T02:16:07.446Z,96794.59
2022-10-19T02:18:14.664Z,96506.38
2022-10-19T02:20:19.576Z,96793.25
2022-10-19T02:22:22.951Z,96720.50
2022-10-19T02:24:25.835Z,96816.19
2022-10-19T02:26:28.864Z,96781.38
2022-10-19T02:28:32.454Z,96787.84
2022-10-19T02:30:35.314Z,96876.28
2022-10-19T02:32:38.422Z,96360.31
2022-10-19T02:34:41.684Z,96832.59
2022-10-19T02:36:46.050Z,96776.78
2022-10-19T02:38:48.809Z,96773.53
2022-10-19T02:40:57.653Z,96488.75
2022-10-19T02:43:05.097Z,96862.34
2022-10-19T02:45:13.663Z,96772.44
2022-10-19T02:47:21.175Z,96281.06
2022-10-19T02:49:24.071Z,96777.84
2022-10-19T02:51:31.849Z,96627.38
2022-10-19T02:53:35.991Z,96608.06
2022-10-19T02:57:41.760Z,96766.16
2022-10-19T02:59:44.800Z,96417.44
2022-10-19T03:01:48.148Z,96767.47
2022-10-19T03:03:50.973Z,96333.06
2022-10-19T03:05:53.878Z,96811.47
2022-10-19T03:07:56.790Z,96621.28
2022-10-19T03:10:01.059Z,96767.00
2022-10-19T03:12:03.808Z,96765.41
2022-10-19T03:14:06.627Z,96762.72
2022-10-19T03:16:11.230Z,96489.72
2022-10-19T03:18:14.164Z,96754.88
2022-10-19T03:20:17.136Z,96485.34
2022-10-19T03:22:20.197Z,96755.22
2022-10-19T03:24:23.031Z,96388.56
2022-10-19T03:26:27.791Z,96825.19
2022-10-19T03:28:30.944Z,96748.13
2022-10-19T03:30:33.657Z,96679.38
2022-10-19T03:32:36.364Z,96743.84
2022-10-19T03:34:39.031Z,96752.09
2022-10-19T03:36:41.932Z,96755.22
2022-10-19T03:38:44.701Z,96755.00
2022-10-19T03:40:47.393Z,96751.03
2022-10-19T03:42:51.419Z,96557.25
2022-10-19T03:44:54.056Z,96741.53
2022-10-19T03:46:57.162Z,96743.91
2022-10-19T03:49:00.117Z,96744.03
2022-10-19T03:51:04.959Z,96215.50
2022-10-19T03:53:07.839Z,96745.19
2022-10-19T03:55:11.494Z,96569.38
2022-10-19T03:57:14.241Z,96731.88
2022-10-19T03:59:18.537Z,96741.88
2022-10-19T04:01:23.627Z,96555.38
2022-10-19T04:03:26.761Z,96740.34
2022-10-19T04:05:29.711Z,96217.66
2022-10-19T04:07:32.606Z,96654.47
2022-10-19T04:09:35.593Z,96561.44
2022-10-19T04:11:39.099Z,96738.22
2022-10-19T04:13:42.000Z,96730.06
2022-10-19T04:15:46.109Z,96729.50
2022-10-19T04:17:49.430Z,96588.22
2022-10-19T04:19:52.166Z,96736.28
2022-10-19T04:21:54.919Z,96195.78
2022-10-19T04:24:00.605Z,96637.50
2022-10-19T04:26:05.923Z,96736.41
2022-10-19T04:28:08.650Z,96737.78
2022-10-19T04:30:12.169Z,96496.59
2022-10-19T04:32:16.267Z,96742.38
2022-10-19T04:34:20.148Z,96740.75
2022-10-19T04:36:22.881Z,96742.59
2022-10-19T04:38:25.776Z,96739.13
2022-10-19T04:40:28.538Z,96737.75
2022-10-19T04:42:31.299Z,96739.91
2022-10-19T04:44:34.250Z,96392.47
2022-10-19T04:46:37.389Z,96730.28
2022-10-19T04:48:42.141Z,96610.22
2022-10-19T04:50:44.874Z,96725.25
2022-10-19T04:52:56.168Z,96727.97
2022-10-19T04:54:59.001Z,96561.59
2022-10-19T04:57:01.869Z,96724.69
2022-10-19T04:59:04.725Z,96715.66
2022-10-19T05:01:17.579Z,96668.00
2022-10-19T05:03:22.397Z,96410.69
2022-10-19T05:05:26.975Z,96725.97
2022-10-19T05:07:29.843Z,96721.94
2022-10-19T05:09:34.334Z,96537.50
2022-10-19T05:11:38.620Z,96724.91
2022-10-19T05:13:41.834Z,96723.94
2022-10-19T05:15:44.513Z,96716.31
2022-10-19T05:17:47.348Z,96725.56
2022-10-19T05:19:50.014Z,96722.53
2022-10-19T05:21:54.062Z,96718.25
2022-10-19T05:23:57.844Z,96721.00
2022-10-19T05:26:02.355Z,96713.03
2022-10-19T05:28:05.058Z,96720.78
2022-10-19T05:30:09.043Z,96709.75
2022-10-19T05:32:11.713Z,96712.72
2022-10-19T05:34:14.485Z,96708.69
2022-10-19T05:36:19.539Z,96702.41
2022-10-19T05:38:23.961Z,96710.88
2022-10-19T05:40:26.806Z,96707.06
2022-10-19T05:42:29.864Z,96705.00
2022-10-19T05:44:32.621Z,96578.41
2022-10-19T05:46:35.854Z,96705.66
2022-10-19T05:48:39.438Z,96698.59
2022-10-19T05:50:42.194Z,96711.63
2022-10-19T05:52:45.086Z,96547.34
2022-10-19T05:54:49.175Z,96714.91
2022-10-19T05:56:51.911Z,96721.38
2022-10-19T05:58:56.253Z,96727.13
2022-10-19T06:01:01.185Z,96713.38
2022-10-19T06:03:04.096Z,96707.69
2022-10-19T06:05:08.023Z,96715.56
2022-10-19T06:07:10.747Z,96549.56
2022-10-19T06:09:14.089Z,96732.81
2022-10-19T06:11:20.151Z,96719.91
2022-10-19T06:13:22.978Z,96533.47
2022-10-19T06:15:25.702Z,96718.50
2022-10-19T06:17:29.845Z,96715.50
2022-10-19T06:19:32.677Z,96729.06
2022-10-19T06:21:35.963Z,96724.47
2022-10-19T06:23:39.723Z,96736.91
2022-10-19T06:25:42.784Z,96726.38
2022-10-19T06:27:46.889Z,96719.63
2022-10-19T06:29:49.650Z,96733.94
2022-10-19T06:31:54.171Z,96739.88
2022-10-19T06:33:56.946Z,96739.88
2022-10-19T06:36:06.570Z,96676.81
2022-10-19T06:38:09.587Z,96571.19
2022-10-19T06:40:12.675Z,96739.13
2022-10-19T06:42:15.509Z,96669.28
2022-10-19T06:44:19.790Z,96750.56
2022-10-19T06:46:24.138Z,96743.00
2022-10-19T06:48:26.954Z,96752.44
2022-10-19T06:50:29.746Z,96584.97
2022-10-19T06:52:33.404Z,96751.13
2022-10-19T06:54:36.448Z,96754.63
2022-10-19T06:56:39.417Z,96744.41
2022-10-19T06:58:42.381Z,96742.75
2022-10-19T07:00:46.521Z,96742.50
2022-10-19T07:02:49.427Z,96739.78
2022-10-19T07:04:52.284Z,96743.88
2022-10-19T07:06:55.015Z,96742.25
2022-10-19T07:08:57.959Z,96745.47
2022-10-19T07:11:03.215Z,96745.50
2022-10-19T07:13:05.956Z,96556.13
2022-10-19T07:15:09.895Z,96736.88
2022-10-19T07:17:14.154Z,96741.19
2022-10-19T07:19:17.140Z,96740.91
2022-10-19T07:21:21.578Z,96740.34
2022-10-19T07:23:24.755Z,96755.69
2022-10-19T07:25:28.224Z,96718.03
2022-10-19T07:27:35.359Z,96751.66
2022-10-19T07:29:40.521Z,96755.16
2022-10-19T07:31:43.350Z,96758.16
2022-10-19T07:33:47.887Z,96706.19
2022-10-19T07:35:50.640Z,96743.28
2022-10-19T07:37:53.465Z,96760.34
2022-10-19T07:39:56.131Z,96757.91
2022-10-19T07:41:58.889Z,96755.75
2022-10-19T07:44:02.828Z,96664.41
2022-10-19T07:46:07.931Z,96742.19
2022-10-19T07:48:10.742Z,96738.41
2022-10-19T07:50:15.150Z,96741.41
2022-10-19T07:52:18.099Z,96740.09
2022-10-19T07:54:21.334Z,96757.44
2022-10-19T07:56:26.180Z,96487.41
2022-10-19T07:58:28.809Z,96737.69
2022-10-19T08:00:31.530Z,96434.31
2022-10-19T08:02:45.632Z,96736.91
2022-10-19T08:05:01.115Z,96742.91
2022-10-19T08:07:06.899Z,96748.88
2022-10-19T08:09:11.496Z,96745.38
2022-10-19T08:11:20.523Z,96747.84
2022-10-19T08:13:24.147Z,96750.81
2022-10-19T08:15:28.645Z,96203.81
2022-10-19T08:17:31.289Z,96748.03
2022-10-19T08:19:33.991Z,96748.88
2022-10-19T08:21:38.500Z,96757.03
2022-10-19T08:23:42.615Z,96759.22
2022-10-19T08:25:45.495Z,96754.88
2022-10-19T08:27:48.326Z,96748.91
2022-10-19T08:29:51.552Z,96756.00
2022-10-19T08:31:54.291Z,96756.34
2022-10-19T08:33:57.094Z,96750.09
2022-10-19T08:35:59.771Z,96115.75
2022-10-19T08:38:02.960Z,96752.16
2022-10-19T08:40:17.823Z,96748.19
2022-10-19T08:42:24.699Z,96745.03
2022-10-19T08:44:53.251Z,96743.94
2022-10-19T08:47:06.077Z,96761.09
2022-10-19T08:49:13.534Z,96743.47
2022-10-19T08:51:16.748Z,96740.25
2022-10-19T08:53:23.614Z,96732.13
2022-10-19T08:55:36.491Z,96738.03
2022-10-19T08:57:48.023Z,96744.56
2022-10-19T08:59:57.900Z,96741.34
2022-10-19T09:02:05.851Z,96766.03
2022-10-19T09:04:15.888Z,96209.34
2022-10-19T09:06:25.336Z,96421.75
2022-10-19T09:08:29.457Z,96722.28
2022-10-19T09:10:37.859Z,96725.59
2022-10-19T09:12:46.623Z,96729.41
2022-10-19T09:14:58.803Z,96725.13
2022-10-19T09:17:10.445Z,96722.75
2022-10-19T09:19:21.906Z,96543.03
2022-10-19T09:21:36.770Z,96636.72
2022-10-19T09:23:55.810Z,96711.09
2022-10-19T09:25:59.988Z,96188.03
2022-10-19T09:28:14.304Z,96725.59
2022-10-19T09:30:20.835Z,96724.25
2022-10-19T09:32:27.713Z,96290.03
2022-10-19T09:34:34.711Z,96508.38
2022-10-19T09:36:56.616Z,96723.59
2022-10-19T09:38:59.389Z,96736.06
2022-10-19T09:41:16.576Z,96260.28
2022-10-19T09:43:20.729Z,96728.00
2022-10-19T09:45:33.593Z,96729.38
2022-10-19T09:47:38.155Z,96473.88
2022-10-19T09:49:43.249Z,96725.31
2022-10-19T09:51:51.620Z,96725.59
2022-10-19T09:53:55.594Z,96590.34
2022-10-19T09:56:06.184Z,96724.81
2022-10-19T09:58:18.336Z,96730.75
2022-10-19T10:00:23.736Z,96625.16
2022-10-19T10:02:33.172Z,96726.91
2022-10-19T10:04:36.520Z,96725.56
2022-10-19T10:06:41.323Z,96235.44
2022-10-19T10:08:48.099Z,96719.63
2022-10-19T10:10:57.789Z,96716.38
2022-10-19T10:13:01.564Z,96324.47
2022-10-19T10:15:08.315Z,96725.88
2022-10-19T10:17:17.855Z,96718.28
2022-10-19T10:19:23.167Z,96720.47
2022-10-19T10:21:32.399Z,96715.03
2022-10-19T10:23:36.579Z,96716.09
2022-10-19T10:25:39.406Z,96710.16
2022-10-19T10:27:42.339Z,96717.69
2022-10-19T10:32:10.327Z,96706.31
2022-10-19T10:34:28.685Z,96698.19
2022-10-19T10:36:41.100Z,96695.75
2022-10-19T10:38:47.970Z,96699.28
2022-10-19T10:40:53.101Z,96694.94
2022-10-19T10:42:59.239Z,96692.78
2022-10-19T10:45:02.313Z,96699.56
2022-10-19T10:47:16.001Z,96639.84
2022-10-19T10:49:24.078Z,96322.66
2022-10-19T10:51:34.196Z,96687.94
2022-10-19T10:53:39.870Z,96697.72
2022-10-19T10:55:57.081Z,96693.91
2022-10-19T10:58:12.797Z,96683.63
2022-10-19T11:00:17.687Z,96691.22
2022-10-19T11:02:32.292Z,96673.31
2022-10-19T11:04:40.200Z,96577.81
2022-10-19T11:06:48.607Z,96602.78
2022-10-19T11:08:59.781Z,96676.31
2022-10-19T11:11:07.859Z,96669.81
2022-10-19T11:13:18.035Z,96165.09
2022-10-19T11:15:24.451Z,96668.19
2022-10-19T11:17:31.550Z,96673.34
2022-10-19T11:19:37.707Z,96667.38
2022-10-19T11:21:45.419Z,96665.72
2022-10-19T11:24:01.726Z,96595.19
2022-10-19T11:26:14.716Z,96671.13
2022-10-19T11:28:36.766Z,96657.56
2022-10-19T11:30:50.990Z,96654.56
2022-10-19T11:33:02.449Z,96649.44
2022-10-19T11:35:20.717Z,96642.06
2022-10-19T11:37:30.139Z,96641.75
2022-10-19T11:39:46.260Z,96643.91
2022-10-19T11:41:58.863Z,96640.56
2022-10-19T11:44:18.628Z,96629.31
2022-10-19T11:46:27.013Z,96628.81
2022-10-19T11:48:59.626Z,96622.75
2022-10-19T11:51:17.262Z,96619.50
2022-10-19T11:53:35.646Z,96608.34
2022-10-19T11:55:45.358Z,96611.81
2022-10-19T11:57:55.973Z,96614.19
2022-10-19T12:00:14.602Z,96605.69
2022-10-19T12:02:49.689Z,96605.47
2022-10-19T12:04:58.518Z,96600.22
2022-10-19T12:07:12.152Z,96611.78
2022-10-19T12:09:28.307Z,96607.72
2022-10-19T12:11:45.671Z,96185.13
2022-10-19T12:13:52.595Z,96362.38
2022-10-19T12:15:59.073Z,96602.00
2022-10-19T12:18:08.069Z,96603.06
2022-10-19T12:20:21.224Z,96599.31
2022-10-19T12:22:28.324Z,96605.25
2022-10-19T12:24:33.446Z,96594.75
2022-10-19T12:26:37.777Z,96212.16
2022-10-19T12:28:44.160Z,96592.31
2022-10-19T12:30:46.877Z,96588.00
2022-10-19T12:32:59.531Z,96585.72
2022-10-19T12:35:09.511Z,96583.66
2022-10-19T12:37:21.323Z,96463.78
2022-10-19T12:39:31.204Z,96583.97
2022-10-19T12:41:41.322Z,96020.75
2022-10-19T12:43:52.640Z,96463.66
2022-10-19T12:46:04.841Z,96569.13
2022-10-19T12:48:24.561Z,96382.06
2022-10-19T12:50:58.951Z,96562.34
2022-10-19T12:53:03.076Z,96397.09
2022-10-19T12:55:35.069Z,96546.47
2022-10-19T12:57:39.866Z,96426.66
2022-10-19T12:59:43.430Z,96545.53
2022-10-19T13:01:46.280Z,96542.84
2022-10-19T13:03:52.055Z,96538.16
2022-10-19T13:05:58.532Z,96530.66
2022-10-19T13:08:06.102Z,96524.78
2022-10-19T13:10:20.865Z,96522.47
2022-10-19T13:12:45.845Z,96497.13
2022-10-19T13:14:50.469Z,96317.22
2022-10-19T13:17:02.754Z,96514.09
2022-10-19T13:19:20.453Z,96356.84
2022-10-19T13:21:44.671Z,96506.50
2022-10-19T13:23:50.029Z,96508.88
2022-10-19T13:26:32.996Z,96327.44
2022-10-19T13:28:39.225Z,96515.47
2022-10-19T13:31:09.357Z,96505.31
2022-10-19T13:33:55.864Z,96506.28
2022-10-19T13:36:08.350Z,96496.97
2022-10-19T13:38:20.882Z,96496.72
2022-10-19T13:40:25.210Z,96493.59
2022-10-19T13:42:29.283Z,96496.00
2022-10-19T13:44:35.655Z,96493.75
2022-10-19T13:46:53.541Z,96494.41
2022-10-19T13:49:18.535Z,96491.81
2022-10-19T13:51:30.011Z,96497.44
2022-10-19T13:53:43.507Z,96321.31
2022-10-19T13:56:19.350Z,96478.63
2022-10-19T13:58:41.391Z,96301.88
2022-10-19T14:01:03.984Z,96478.91
2022-10-19T14:03:22.469Z,96473.03
2022-10-19T14:05:52.394Z,96416.38
2022-10-19T14:08:06.666Z,96463.47
2022-10-19T14:10:16.063Z,96449.16
2022-10-19T14:12:24.346Z,96460.91
2022-10-19T14:14:30.434Z,96458.28
2022-10-19T14:16:33.203Z,96460.47
2022-10-19T14:18:37.841Z,96448.44
2022-10-19T14:20:40.601Z,96454.41
2022-10-19T14:22:43.415Z,96450.88
2022-10-19T14:24:46.283Z,96454.97
2022-10-19T14:26:49.240Z,96445.56
2022-10-19T14:28:54.415Z,96455.84
2022-10-19T14:31:01.976Z,96313.31
2022-10-19T14:33:09.955Z,96336.94
2022-10-19T14:35:21.883Z,96452.84
2022-10-19T14:37:27.854Z,96449.88
2022-10-19T14:39:34.207Z,96453.50
2022-10-19T14:41:38.204Z,96455.19
2022-10-19T14:43:40.878Z,96454.91
2022-10-19T14:45:43.758Z,96385.38
2022-10-19T14:47:59.482Z,96448.13
2022-10-19T14:50:03.986Z,96448.38
2022-10-19T14:52:07.094Z,96445.38
2022-10-19T14:54:15.638Z,96457.63
2022-10-19T14:56:23.057Z,96449.47
2022-10-19T14:58:28.307Z,96444.28
2022-10-19T15:00:33.704Z,96459.25
2022-10-19T15:02:40.682Z,96491.88
2022-10-19T15:04:46.425Z,96449.59
2022-10-19T15:06:49.340Z,96452.59
2022-10-19T15:11:02.029Z,96440.84
2022-10-19T15:13:07.444Z,96336.72
2022-10-19T15:15:14.636Z,96403.41
2022-10-19T15:17:26.931Z,96452.53
2022-10-19T15:19:32.342Z,96328.06
2022-10-19T15:21:36.509Z,96432.22
2022-10-19T15:23:42.713Z,96426.97
2022-10-19T15:25:46.863Z,96419.16
2022-10-19T15:27:50.869Z,96423.88
2022-10-19T15:29:57.568Z,95828.44
2022-10-19T15:32:14.667Z,96431.94
2022-10-19T15:34:25.865Z,96428.50
2022-10-19T15:36:30.489Z,96478.47
2022-10-19T15:38:35.651Z,96349.22
2022-10-19T15:40:41.604Z,96314.41
2022-10-19T15:42:46.917Z,96310.47
2022-10-19T15:44:49.737Z,96421.25
2022-10-19T15:47:20.109Z,96195.25
2022-10-19T15:49:53.044Z,96414.84
2022-10-19T15:51:56.085Z,96318.03
2022-10-19T15:54:02.388Z,96392.78
2022-10-19T15:56:05.424Z,96006.94
2022-10-19T15:58:11.620Z,96415.16
2022-10-19T16:00:17.023Z,96241.81
2022-10-19T16:02:19.828Z,96416.81
2022-10-19T16:04:22.525Z,96264.06
2022-10-19T16:06:27.915Z,96418.72
2022-10-19T16:08:30.769Z,96418.97
2022-10-19T16:10:34.771Z,96414.34
2022-10-19T16:12:37.682Z,96280.97
2022-10-19T16:14:40.974Z,96408.41
2022-10-19T16:16:43.910Z,96404.06
2022-10-19T16:18:46.622Z,96399.19
2022-10-19T16:20:49.365Z,96394.56
2022-10-19T16:22:52.460Z,96404.09
2022-10-19T16:24:55.144Z,96404.38
2022-10-19T16:26:59.293Z,96479.84
2022-10-19T16:29:02.718Z,96430.19
2022-10-19T16:31:05.942Z,96402.53
2022-10-19T16:33:08.657Z,96396.00
2022-10-19T16:35:12.220Z,96483.66
2022-10-19T16:37:14.965Z,96392.78
2022-10-19T16:39:17.803Z,96389.53
2022-10-19T16:41:20.883Z,96267.88
2022-10-19T16:43:25.025Z,96258.06
2022-10-19T16:45:28.141Z,96385.19
2022-10-19T16:47:30.937Z,96395.50
2022-10-19T16:49:33.950Z,96397.69
2022-10-19T16:51:37.977Z,96396.63
2022-10-19T16:53:40.737Z,96402.06
2022-10-19T16:55:43.577Z,96405.56
2022-10-19T16:57:46.308Z,96431.63
2022-10-19T17:02:01.732Z,96410.72
2022-10-19T17:04:04.622Z,96405.84
2022-10-19T17:06:08.472Z,96141.84
2022-10-19T17:08:11.723Z,96402.06
2022-10-19T17:10:15.351Z,96404.81
2022-10-19T17:12:18.195Z,96408.63
2022-10-19T17:14:21.081Z,96404.31
2022-10-19T17:16:26.497Z,96404.56
2022-10-19T17:18:29.176Z,96407.56
2022-10-19T17:20:33.362Z,96401.84
2022-10-19T17:22:36.359Z,96398.88
2022-10-19T17:24:40.077Z,96404.31
2022-10-19T17:26:45.197Z,96173.22
2022-10-19T17:28:49.214Z,96243.81
2022-10-19T17:30:52.580Z,96401.06
2022-10-19T17:32:56.563Z,95116.28
2022-10-19T17:34:59.153Z,96403.22
2022-10-19T17:37:02.061Z,96401.91
2022-10-19T17:39:08.737Z,96396.47
2022-10-19T17:41:13.819Z,96449.63
2022-10-19T17:43:16.553Z,96412.19
2022-10-19T17:45:19.216Z,96233.81
2022-10-19T17:47:21.927Z,96415.19
2022-10-19T17:49:26.038Z,96063.44
2022-10-19T17:51:30.847Z,96331.25
2022-10-19T17:53:34.307Z,96418.41
2022-10-19T17:55:37.767Z,96413.53
2022-10-19T17:57:40.512Z,96409.19
2022-10-19T17:59:52.576Z,96413.53
2022-10-19T18:01:55.993Z,96179.16
2022-10-19T18:03:59.048Z,96415.44
2022-10-19T18:06:08.233Z,96412.72
2022-10-19T18:08:13.490Z,96348.28
2022-10-19T18:10:16.562Z,96412.44
2022-10-19T18:12:19.423Z,96410.28
2022-10-19T18:14:22.294Z,96409.19
2022-10-19T18:16:27.459Z,96404.31
2022-10-19T18:18:31.523Z,96402.16
2022-10-19T18:20:34.369Z,96401.63
2022-10-19T18:22:38.878Z,96407.31
2022-10-19T18:24:41.622Z,96401.34
2022-10-19T18:26:44.557Z,96111.28
2022-10-19T18:28:47.742Z,96341.81
2022-10-19T18:30:50.593Z,96001.22
2022-10-19T18:32:53.382Z,96400.03
2022-10-19T18:34:56.147Z,96370.78
2022-10-19T18:36:58.899Z,96040.72
2022-10-19T18:39:05.085Z,96138.31
2022-10-19T18:43:14.407Z,96384.31
2022-10-19T18:45:17.287Z,96386.19
2022-10-19T18:47:21.345Z,96382.16
2022-10-19T18:49:24.700Z,96382.97
2022-10-19T18:51:28.397Z,95971.75
2022-10-19T18:53:32.199Z,96381.59
2022-10-19T18:55:36.264Z,96380.53
2022-10-19T18:57:39.203Z,96375.41
2022-10-19T18:59:41.973Z,96378.91
2022-10-19T19:01:44.748Z,96371.03
2022-10-19T19:03:49.614Z,96302.78
2022-10-19T19:05:52.288Z,96247.03
2022-10-19T19:07:55.958Z,96027.72
2022-10-19T19:09:58.763Z,96388.91
2022-10-19T19:12:02.801Z,96385.38
2022-10-19T19:14:07.808Z,96377.78
2022-10-19T19:16:10.819Z,96374.78
2022-10-19T19:18:13.622Z,96377.22
2022-10-19T19:20:16.441Z,96375.06
2022-10-19T19:22:19.121Z,96373.44
2022-10-19T19:24:23.080Z,96371.28
2022-10-19T19:26:27.499Z,96362.09
2022-10-19T19:28:31.532Z,96350.69
2022-10-19T19:30:34.302Z,96355.06
2022-10-19T19:32:37.344Z,96347.19
2022-10-19T19:34:40.114Z,96347.19
2022-10-19T19:36:47.681Z,96113.69
2022-10-19T19:38:53.777Z,96341.56
2022-10-19T19:40:56.507Z,96213.78
2022-10-19T19:42:59.138Z,96355.88
2022-10-19T19:45:03.207Z,96342.31
2022-10-19T19:47:06.850Z,96333.94
2022-10-19T19:49:09.580Z,96334.47
2022-10-19T19:51:14.656Z,96325.28
2022-10-19T19:53:17.462Z,96042.56
2022-10-19T19:55:20.130Z,96319.59
2022-10-19T19:57:23.417Z,96313.91
2022-10-19T19:59:27.142Z,96364.25
2022-10-19T20:01:32.415Z,96315.53
2022-10-19T20:03:35.390Z,96317.16
2022-10-19T20:05:38.349Z,96316.06
2022-10-19T20:07:41.082Z,96309.03
2022-10-19T20:09:43.809Z,96309.84
2022-10-19T20:11:46.777Z,96362.88
2022-10-19T20:13:50.209Z,96170.69
2022-10-19T20:15:53.904Z,96311.19
2022-10-19T20:17:57.983Z,96285.16
2022-10-19T20:20:00.730Z,96307.94
2022-10-19T20:22:04.351Z,96136.03
2022-10-19T20:24:07.796Z,96325.25
2022-10-19T20:26:16.387Z,96327.41
2022-10-19T20:28:19.106Z,96331.19
2022-10-19T20:30:21.814Z,96339.81
2022-10-19T20:32:24.586Z,96328.16
2022-10-19T20:34:28.606Z,95954.78
2022-10-19T20:36:31.286Z,96068.34
2022-10-19T20:38:34.225Z,96332.94
2022-10-19T20:40:40.733Z,96336.72
2022-10-19T20:42:43.865Z,96204.16
2022-10-19T20:44:46.789Z,96212.84
2022-10-19T20:46:50.763Z,96331.84
2022-10-19T20:48:54.740Z,96332.66
2022-10-19T20:51:09.062Z,96329.38
2022-10-19T20:53:12.533Z,96323.97
2022-10-19T20:55:15.351Z,96325.56
2022-10-19T20:57:18.095Z,95577.06
2022-10-19T20:59:22.616Z,96323.94
2022-10-19T21:01:26.050Z,96015.78
2022-10-19T21:03:29.039Z,96320.16
2022-10-19T21:05:32.157Z,96314.47
2022-10-19T21:07:36.309Z,96167.38
2022-10-19T21:09:39.152Z,96247.69
2022-10-19T21:11:43.344Z,96321.13
2022-10-19T21:13:47.054Z,96159.41
2022-10-19T21:15:49.982Z,95904.66
2022-10-19T21:17:52.798Z,96309.50
2022-10-19T21:19:57.321Z,96309.47
2022-10-19T21:22:02.896Z,96298.94
2022-10-19T21:24:09.199Z,96128.16
2022-10-19T21:26:12.386Z,96311.88
2022-10-19T21:28:15.143Z,96309.66
2022-10-19T21:30:17.977Z,96314.50
2022-10-19T21:32:21.410Z,96310.06
2022-10-19T21:34:25.888Z,96317.34
2022-10-19T21:36:28.901Z,96310.78
2022-10-19T21:38:31.722Z,96136.00
2022-10-19T21:40:37.586Z,96333.75
2022-10-19T21:42:40.341Z,96320.00
2022-10-19T21:44:43.127Z,96052.78
2022-10-19T21:46:47.775Z,96114.28
2022-10-19T21:48:51.189Z,96109.13
2022-10-19T21:50:53.973Z,96304.03
2022-10-19T21:52:58.254Z,96296.44
2022-10-19T21:55:00.973Z,96288.06
2022-10-19T21:57:05.331Z,96293.13
2022-10-19T21:59:08.220Z,96139.97
2022-10-19T22:01:11.162Z,96085.56
2022-10-19T22:05:16.950Z,96284.44
2022-10-19T22:07:19.705Z,96131.72
2022-10-19T22:09:23.747Z,96284.41
2022-10-19T22:11:27.930Z,96287.84
2022-10-19T22:13:32.261Z,96294.56
2022-10-19T22:15:38.277Z,96290.25
2022-10-19T22:17:41.485Z,96297.66
2022-10-19T22:19:44.370Z,96285.31
2022-10-19T22:21:47.229Z,96277.47
2022-10-19T22:23:53.562Z,96283.69
2022-10-19T22:25:56.490Z,95983.63
2022-10-19T22:27:59.440Z,96337.50
2022-10-19T22:30:03.792Z,96273.88
2022-10-19T22:32:06.734Z,96273.88
2022-10-19T22:34:11.449Z,95889.50
2022-10-19T22:36:14.509Z,96263.66
2022-10-19T22:38:17.245Z,95854.22
2022-10-19T22:40:20.128Z,96253.97
2022-10-19T22:42:22.902Z,96252.56
2022-10-19T22:44:25.852Z,96250.38
2022-10-19T22:46:30.022Z,96250.66
2022-10-19T22:48:32.812Z,96239.31
2022-10-19T22:50:35.569Z,96236.53
2022-10-19T22:52:38.843Z,95236.03
2022-10-19T22:54:41.829Z,96349.19
2022-10-19T22:56:44.815Z,96228.63
2022-10-19T22:58:47.568Z,96074.22
2022-10-19T23:01:00.822Z,96158.34
2022-10-19T23:03:05.143Z,95547.94
2022-10-19T23:05:08.474Z,96171.03
2022-10-19T23:09:14.170Z,95721.44
2022-10-19T23:11:17.972Z,96195.56
2022-10-19T23:13:20.738Z,96147.81
2022-10-19T23:15:23.469Z,96212.88
2022-10-19T23:17:26.199Z,96212.34
2022-10-19T23:19:30.259Z,96209.09
2022-10-19T23:21:32.977Z,96223.63
2022-10-19T23:23:36.898Z,95980.19
2022-10-19T23:25:39.607Z,96200.75
2022-10-19T23:27:42.273Z,96209.91
2022-10-19T23:29:44.950Z,96162.75
2022-10-19T23:31:48.134Z,96030.44
2022-10-19T23:33:51.320Z,96197.44
2022-10-19T23:35:55.380Z,96091.63
2022-10-19T23:37:57.967Z,96201.25
2022-10-19T23:40:00.603Z,96099.19
2022-10-19T23:42:03.303Z,96203.84
2022-10-19T23:44:06.634Z,96191.97
2022-10-19T23:46:09.868Z,95688.00
2022-10-19T23:48:12.538Z,96107.53
2022-10-19T23:50:15.472Z,96198.38
2022-10-19T23:52:19.748Z,96110.03
2022-10-19T23:54:22.759Z,95876.13
2022-10-19T23:56:27.830Z,96188.56
2022-10-19T23:58:31.156Z,96205.09
